Time;durP1;ratioP1;P1;durP2;ratioP2;P2;SDS_P1;SDS_P2;PMS_P1;PMS_P2;Temp;Humidity;BMP_temperature;BMP_pressure;BME280_temperature;BME280_humidity;BME280_pressure;Samples;Min_cycle;Max_cycle;Signal;HPM_P1;HPM_P2
2023/10/12 00:01:39;;;;;;;5.37;3.50;;;;;;;14.90;93.00;98163.94;5073064;28;20263;-80
2023/10/12 00:04:11;;;;;;;6.20;4.07;;;;;;;14.84;93.70;98168.97;5073640;28;20207;-80
2023/10/12 00:06:43;;;;;;;4.90;3.80;;;;;;;14.85;94.04;98167.97;5073949;28;20211;-80
2023/10/12 00:09:17;;;;;;;7.70;3.87;;;;;;;14.79;94.63;98166.66;5073991;28;20215;-80
2023/10/12 00:11:54;;;;;;;8.40;4.03;;;;;;;14.71;95.75;98158.50;5072931;28;20234;-80
2023/10/12 00:14:22;;;;;;;8.10;3.80;;;;;;;14.65;96.16;98158.16;5073186;28;20214;-80
2023/10/12 00:16:51;;;;;;;8.17;4.27;;;;;;;14.57;96.34;98163.31;5073202;28;20316;-80
2023/10/12 00:19:17;;;;;;;6.63;3.83;;;;;;;14.56;96.52;98164.28;5073181;28;20208;-79
2023/10/12 00:21:43;;;;;;;8.60;4.23;;;;;;;14.55;97.12;98163.44;5072234;28;20224;-80
2023/10/12 00:24:12;;;;;;;10.17;4.10;;;;;;;14.64;96.31;98148.50;5072979;28;20207;-79
2023/10/12 00:26:42;;;;;;;10.00;4.87;;;;;;;14.64;95.84;98153.81;5072888;28;20204;-80
2023/10/12 00:29:08;;;;;;;8.57;4.47;;;;;;;14.59;96.56;98153.38;5073185;28;20208;-80
2023/10/12 00:31:38;;;;;;;5.30;3.63;;;;;;;14.59;96.62;98148.91;5072371;28;20242;-80
2023/10/12 00:34:05;;;;;;;7.37;4.33;;;;;;;14.58;96.15;98151.69;5073069;28;20242;-79
2023/10/12 00:36:36;;;;;;;9.53;4.57;;;;;;;14.59;96.18;98142.72;5072153;28;20242;-80
2023/10/12 00:39:09;;;;;;;11.13;4.80;;;;;;;14.55;96.61;98146.66;5072781;28;20222;-80
2023/10/12 00:41:37;;;;;;;9.17;5.87;;;;;;;14.52;96.88;98147.75;5072299;28;20227;-80
2023/10/12 00:44:08;;;;;;;10.83;5.00;;;;;;;14.51;97.29;98140.75;5072674;28;20302;-80
2023/10/12 00:46:58;;;;;;;7.07;4.10;;;;;;;14.50;97.32;98132.88;5072860;28;20286;-79
2023/10/12 00:49:28;;;;;;;7.53;4.50;;;;;;;14.45;97.85;98143.06;5072764;28;20666;-80
2023/10/12 00:52:08;;;;;;;9.23;4.80;;;;;;;14.43;98.02;98127.22;5071602;28;20728;-79
2023/10/12 00:54:43;;;;;;;7.03;4.60;;;;;;;14.43;97.99;98131.72;5072572;28;20253;-80
2023/10/12 00:57:10;;;;;;;6.73;4.40;;;;;;;14.45;98.62;98127.09;5071959;28;20237;-79
2023/10/12 00:59:37;;;;;;;7.30;4.70;;;;;;;14.48;98.49;98129.53;5071283;28;20356;-80
2023/10/12 01:02:09;;;;;;;10.23;5.17;;;;;;;14.47;98.29;98130.47;5071375;28;20232;-79
2023/10/12 01:04:36;;;;;;;7.93;4.63;;;;;;;14.42;98.34;98120.22;5072652;28;20222;-79
2023/10/12 01:07:06;;;;;;;6.90;4.37;;;;;;;14.30;99.20;98123.09;5072641;28;20203;-80
2023/10/12 01:09:39;;;;;;;7.00;4.77;;;;;;;14.21;99.72;98122.06;5072533;28;20220;-79
2023/10/12 01:12:13;;;;;;;9.23;4.83;;;;;;;14.14;100.00;98130.63;5071580;28;20705;-80
2023/10/12 01:14:43;;;;;;;5.80;4.37;;;;;;;14.06;100.00;98122.47;5072510;28;20226;-79
2023/10/12 01:17:17;;;;;;;8.70;4.77;;;;;;;14.02;100.00;98126.34;5072289;28;20231;-79
2023/10/12 01:19:47;;;;;;;7.03;4.17;;;;;;;14.02;100.00;98132.50;5072402;28;20244;-80
2023/10/12 01:22:15;;;;;;;8.40;4.30;;;;;;;14.03;100.00;98128.00;5071453;28;20238;-79
2023/10/12 01:24:57;;;;;;;8.60;4.53;;;;;;;14.02;100.00;98121.88;5072230;28;20214;-80
2023/10/12 01:27:25;;;;;;;9.30;5.53;;;;;;;13.98;100.00;98132.84;5071929;28;20701;-79
2023/10/12 01:29:52;;;;;;;7.00;4.50;;;;;;;13.96;100.00;98132.16;5071726;28;20238;-80
2023/10/12 01:32:27;;;;;;;6.10;4.40;;;;;;;13.94;100.00;98124.31;5071204;28;20364;-79
2023/10/12 01:34:55;;;;;;;7.47;4.20;;;;;;;13.87;100.00;98122.31;5072177;28;20217;-80
2023/10/12 01:37:25;;;;;;;8.33;4.60;;;;;;;13.83;100.00;98121.72;5072091;28;20610;-80
2023/10/12 01:39:57;;;;;;;6.93;4.47;;;;;;;13.81;100.00;98109.53;5072080;28;20356;-79
2023/10/12 01:42:41;;;;;;;9.10;4.80;;;;;;;13.80;100.00;98113.13;5071075;28;20670;-80
2023/10/12 01:45:17;;;;;;;9.43;5.30;;;;;;;13.77;100.00;98118.69;5071903;28;20203;-79
2023/10/12 01:47:45;;;;;;;6.97;5.00;;;;;;;13.80;100.00;98121.09;5072794;28;20207;-80
2023/10/12 01:50:11;;;;;;;7.47;4.63;;;;;;;13.83;100.00;98111.09;5075914;28;20199;-81
2023/10/12 01:52:39;;;;;;;7.57;4.90;;;;;;;13.80;100.00;98121.09;5075444;28;20235;-80
2023/10/12 01:55:16;;;;;;;8.37;4.87;;;;;;;13.81;100.00;98112.19;5076113;28;20203;-79
2023/10/12 01:57:47;;;;;;;8.97;5.03;;;;;;;13.79;100.00;98111.44;5075939;28;20541;-79
2023/10/12 02:00:17;;;;;;;8.07;4.60;;;;;;;13.81;100.00;98107.69;5075658;28;20219;-81
2023/10/12 02:02:50;;;;;;;6.23;4.40;;;;;;;13.78;100.00;98107.97;5074972;28;20587;-79
2023/10/12 02:05:24;;;;;;;7.83;4.77;;;;;;;13.83;100.00;98110.22;5075863;28;20404;-79
2023/10/12 02:07:53;;;;;;;8.47;4.60;;;;;;;13.99;100.00;98105.34;5076096;28;20344;-79
2023/10/12 02:10:24;;;;;;;8.00;5.07;;;;;;;14.12;100.00;98104.16;5075666;28;20210;-81
2023/10/12 02:12:51;;;;;;;10.83;5.60;;;;;;;14.18;100.00;98101.00;5075446;28;20626;-79
2023/10/12 02:15:20;;;;;;;10.73;4.80;;;;;;;14.28;100.00;98106.41;5075612;28;20318;-79
2023/10/12 02:17:50;;;;;;;8.93;5.27;;;;;;;14.32;100.00;98095.41;5076015;28;20274;-79
2023/10/12 02:20:18;;;;;;;10.67;4.70;;;;;;;14.29;100.00;98105.47;5075790;28;20207;-79
2023/10/12 02:22:45;;;;;;;9.63;5.23;;;;;;;14.23;100.00;98114.78;5075287;28;20304;-79
2023/10/12 02:25:18;;;;;;;9.97;5.00;;;;;;;14.22;100.00;98112.25;5075436;28;20218;-79
2023/10/12 02:27:54;;;;;;;8.37;4.77;;;;;;;14.21;100.00;98105.25;5075573;28;20397;-79
2023/10/12 02:30:27;;;;;;;9.27;4.87;;;;;;;14.26;100.00;98103.06;5075936;28;20609;-79
2023/10/12 02:33:00;;;;;;;7.80;4.60;;;;;;;14.26;100.00;98108.38;5074520;28;20215;-79
2023/10/12 02:35:28;;;;;;;7.90;4.37;;;;;;;14.22;100.00;98107.78;5075650;28;20219;-81
2023/10/12 02:37:58;;;;;;;8.97;4.70;;;;;;;14.22;100.00;98101.63;5075494;28;20748;-79
2023/10/12 02:40:26;;;;;;;7.23;4.60;;;;;;;14.27;100.00;98099.41;5075188;28;20218;-79
2023/10/12 02:42:54;;;;;;;6.07;4.20;;;;;;;14.27;100.00;98104.72;5074746;28;20204;-79
2023/10/12 02:45:21;;;;;;;7.23;4.03;;;;;;;14.29;100.00;98100.16;5075419;28;20208;-82
2023/10/12 02:47:48;;;;;;;8.63;4.20;;;;;;;14.32;100.00;98098.06;5074797;28;20207;-79
2023/10/12 02:53:11;;;;;;;11.90;5.83;;;;;;;14.24;100.00;98102.34;5063605;28;20195;-81
2023/10/12 02:55:42;;;;;;;6.03;4.23;;;;;;;14.20;100.00;98098.25;5075135;28;20568;-79
2023/10/12 02:58:19;;;;;;;6.83;4.20;;;;;;;14.15;100.00;98100.41;5074737;28;20258;-81
2023/10/12 03:00:47;;;;;;;6.57;4.13;;;;;;;14.17;100.00;98094.00;5073496;28;20217;-80
2023/10/12 03:03:23;;;;;;;7.63;4.40;;;;;;;14.15;100.00;98103.06;5073871;28;20199;-81
2023/10/12 03:05:52;;;;;;;7.10;4.13;;;;;;;14.15;100.00;98100.41;5075265;28;20306;-79
2023/10/12 03:08:20;;;;;;;6.50;3.97;;;;;;;14.14;100.00;98106.72;5074580;28;20211;-81
2023/10/12 03:11:11;;;;;;;6.80;4.40;;;;;;;14.19;100.00;98099.22;5074775;28;20263;-81
2023/10/12 03:13:41;;;;;;;6.60;4.30;;;;;;;14.20;100.00;98103.56;5073954;28;20666;-81
2023/10/12 03:16:13;;;;;;;7.20;4.57;;;;;;;14.19;100.00;98101.88;5074726;28;20208;-81
2023/10/12 03:18:43;;;;;;;6.50;3.70;;;;;;;14.20;100.00;98093.78;5074553;28;20237;-81
2023/10/12 03:21:13;;;;;;;7.27;4.80;;;;;;;14.24;100.00;98095.19;5074312;28;20234;-81
2023/10/12 03:23:40;;;;;;;5.60;4.13;;;;;;;14.33;100.00;98088.25;5073793;28;20294;-81
2023/10/12 03:26:18;;;;;;;8.47;4.60;;;;;;;14.36;100.00;98088.03;5074390;28;20218;-81
2023/10/12 03:28:46;;;;;;;7.30;4.10;;;;;;;14.33;99.84;98088.25;5074738;28;20207;-79
2023/10/12 03:31:23;;;;;;;6.83;4.23;;;;;;;14.35;99.78;98089.81;5074047;28;20239;-80
2023/10/12 03:33:54;;;;;;;7.47;4.30;;;;;;;14.40;99.48;98092.09;5073476;28;20297;-81
2023/10/12 03:36:25;;;;;;;6.73;4.20;;;;;;;14.41;99.45;98099.06;5073847;28;20585;-82
2023/10/12 03:39:08;;;;;;;6.23;3.90;;;;;;;14.43;99.24;98099.81;5074212;28;20227;-80
2023/10/12 03:42:10;;;;;;;6.80;4.10;;;;;;;14.42;99.13;98106.13;5073435;28;20272;-80
2023/10/12 03:44:41;;;;;;;6.70;4.40;;;;;;;14.36;99.07;98103.97;5074453;28;20207;-80
2023/10/12 03:47:16;;;;;;;6.43;4.00;;;;;;;14.36;99.42;98093.34;5073497;28;20238;-80
2023/10/12 03:49:57;;;;;;;7.37;4.43;;;;;;;14.44;99.04;98101.50;5073999;28;20219;-80
2023/10/12 03:52:28;;;;;;;5.83;3.60;;;;;;;14.53;98.04;98093.56;5073353;28;20344;-80
2023/10/12 03:55:16;;;;;;;6.40;4.13;;;;;;;14.48;97.86;98094.94;5074371;28;20215;-80
2023/10/12 03:57:50;;;;;;;5.87;3.80;;;;;;;14.42;98.57;98092.81;5074174;28;20239;-80
2023/10/12 04:00:32;;;;;;;7.77;4.33;;;;;;;14.40;98.92;98097.41;5073805;28;20760;-79
2023/10/12 04:03:03;;;;;;;6.03;3.87;;;;;;;14.34;99.23;98096.13;5073398;28;20207;-80
2023/10/12 04:05:45;;;;;;;5.47;3.80;;;;;;;14.30;99.44;98107.16;5073806;28;20318;-80
2023/10/12 04:08:38;;;;;;;6.03;4.03;;;;;;;14.24;100.00;98099.69;5074149;28;20203;-79
2023/10/12 04:11:21;;;;;;;7.80;4.40;;;;;;;14.22;100.00;98089.19;5072218;28;20318;-80
2023/10/12 04:14:17;;;;;;;7.97;4.40;;;;;;;14.29;99.65;98087.69;5072946;28;20280;-80
2023/10/12 04:16:45;;;;;;;6.40;4.30;;;;;;;14.29;99.27;98098.31;5073772;28;20520;-80
2023/10/12 04:19:15;;;;;;;6.43;4.00;;;;;;;14.29;99.58;98097.50;5073585;28;20238;-80
2023/10/12 04:21:56;;;;;;;7.27;4.10;;;;;;;14.23;99.61;98104.16;5073098;28;20227;-80
2023/10/12 04:24:27;;;;;;;4.97;3.77;;;;;;;14.16;100.00;98102.94;5073241;28;20211;-80
2023/10/12 04:27:11;;;;;;;7.57;4.30;;;;;;;14.10;100.00;98108.78;5073824;28;20207;-80
2023/10/12 04:29:39;;;;;;;6.70;4.60;;;;;;;14.11;100.00;98114.94;5073693;28;20682;-80
2023/10/12 04:32:15;;;;;;;8.83;4.47;;;;;;;14.10;100.00;98113.25;5072732;28;20237;-80
2023/10/12 04:34:48;;;;;;;6.23;4.37;;;;;;;14.07;100.00;98118.81;5073862;28;20652;-80
2023/10/12 04:37:22;;;;;;;5.77;3.73;;;;;;;14.04;100.00;98119.06;5073715;28;20297;-80
2023/10/12 04:39:56;;;;;;;6.17;4.20;;;;;;;13.96;100.00;98119.72;5073501;28;20211;-80
2023/10/12 04:42:23;;;;;;;10.00;4.33;;;;;;;13.97;100.00;98124.06;5072209;28;20326;-80
2023/10/12 04:45:03;;;;;;;6.57;4.87;;;;;;;13.97;100.00;98117.91;5073015;28;20472;-80
2023/10/12 04:47:30;;;;;;;6.63;4.13;;;;;;;13.98;100.00;98116.91;5072849;28;20207;-80
2023/10/12 04:49:57;;;;;;;10.80;4.40;;;;;;;14.01;100.00;98119.34;5073088;28;20210;-80
2023/10/12 04:52:33;;;;;;;9.00;4.60;;;;;;;14.02;100.00;98121.88;5071789;28;20714;-80
2023/10/12 04:55:06;;;;;;;6.80;4.67;;;;;;;14.06;100.00;98119.81;5073001;28;20207;-80
2023/10/12 04:57:34;;;;;;;9.37;4.80;;;;;;;14.04;100.00;98119.06;5072540;28;20239;-80
2023/10/12 05:00:17;;;;;;;9.80;4.73;;;;;;;14.03;100.00;98117.38;5072546;28;20242;-80
2023/10/12 05:03:00;;;;;;;8.60;4.60;;;;;;;14.11;100.00;98117.63;5072137;28;20263;-80
2023/10/12 05:08:12;;;;;;;8.63;4.40;;;;;;;14.14;100.00;98120.00;5072209;28;20207;-80
2023/10/12 05:10:48;;;;;;;8.73;4.20;;;;;;;14.16;100.00;98123.34;5072292;28;20207;-80
2023/10/12 05:13:19;;;;;;;7.50;4.70;;;;;;;14.15;100.00;98116.38;5071671;28;20239;-80
2023/10/12 05:15:55;;;;;;;8.30;5.00;;;;;;;14.11;100.00;98123.75;5072097;28;20257;-80
2023/10/12 05:18:23;;;;;;;8.97;5.30;;;;;;;14.13;100.00;98128.94;5071976;28;20230;-80
2023/10/12 05:20:50;;;;;;;8.70;5.40;;;;;;;14.10;100.00;98119.41;5071869;28;20241;-80
2023/10/12 05:23:17;;;;;;;8.47;5.07;;;;;;;14.12;100.00;98122.78;5071038;28;20207;-80
2023/10/12 05:28:27;;;;;;;7.23;4.70;;;;;;;14.13;100.00;98135.09;5062971;28;20244;-80
2023/10/12 05:31:09;;;;;;;7.57;4.50;;;;;;;14.13;100.00;98134.25;5071469;28;20295;-80
2023/10/12 05:34:00;;;;;;;8.93;4.93;;;;;;;14.18;100.00;98126.75;5071328;28;20290;-80
2023/10/12 05:36:29;;;;;;;9.00;5.00;;;;;;;14.21;100.00;98138.00;5071746;28;20268;-81
2023/10/12 05:39:11;;;;;;;6.53;4.40;;;;;;;14.22;100.00;98129.06;5071370;28;20231;-78
2023/10/12 05:41:39;;;;;;;9.47;5.17;;;;;;;14.33;100.00;98125.47;5070788;28;20239;-81
2023/10/12 05:44:13;;;;;;;8.83;5.00;;;;;;;14.50;99.46;98127.56;5071596;28;20697;-81
2023/10/12 05:46:44;;;;;;;8.57;5.57;;;;;;;14.56;98.69;98132.38;5072279;28;20721;-82
2023/10/12 05:49:13;;;;;;;8.30;5.67;;;;;;;14.58;98.13;98133.06;5072363;28;20208;-83
2023/10/12 05:51:43;;;;;;;10.53;5.37;;;;;;;14.59;97.93;98135.59;5076364;28;20223;-83
2023/10/12 05:54:10;;;;;;;7.63;4.87;;;;;;;14.55;98.63;98141.31;5074550;28;20214;-82
2023/10/12 05:56:43;;;;;;;9.77;5.57;;;;;;;14.53;98.79;98148.56;5074171;28;20206;-84
2023/10/12 05:59:12;;;;;;;10.63;5.87;;;;;;;14.53;98.86;98148.56;5073893;28;20231;-84
2023/10/12 06:01:40;;;;;;;11.63;5.70;;;;;;;14.54;98.81;98145.78;5074672;28;20223;-84
2023/10/12 06:04:07;;;;;;;8.43;5.70;;;;;;;14.53;98.87;98133.47;5074184;28;20207;-83
2023/10/12 06:06:35;;;;;;;11.17;5.90;;;;;;;14.57;98.67;98139.38;5072986;28;20709;-81
2023/10/12 06:09:01;;;;;;;7.93;5.37;;;;;;;14.67;98.30;98134.97;5072724;28;20574;-82
2023/10/12 06:11:29;;;;;;;9.17;5.63;;;;;;;14.78;97.46;98142.88;5072287;28;20333;-81
2023/10/12 06:13:59;;;;;;;9.60;5.97;;;;;;;14.82;96.86;98139.81;5072833;28;20310;-82
2023/10/12 06:16:28;;;;;;;10.90;5.43;;;;;;;14.89;96.72;98140.09;5072734;28;20211;-81
2023/10/12 06:19:00;;;;;;;8.63;5.10;;;;;;;15.00;95.99;98137.38;5072752;28;20321;-82
2023/10/12 06:21:29;;;;;;;9.70;5.40;;;;;;;15.05;95.38;98146.66;5072664;28;20285;-82
2023/10/12 06:23:56;;;;;;;7.77;5.17;;;;;;;15.15;95.20;98141.38;5072633;28;20674;-81
2023/10/12 06:26:34;;;;;;;9.83;5.73;;;;;;;15.21;94.66;98138.16;5072656;28;20207;-82
2023/10/12 06:29:01;;;;;;;9.47;5.87;;;;;;;15.34;93.76;98142.28;5073631;28;20203;-84
2023/10/12 06:31:29;;;;;;;8.77;5.53;;;;;;;15.41;92.87;98150.59;5072662;28;20235;-83
2023/10/12 06:34:00;;;;;;;10.17;6.20;;;;;;;15.48;92.85;98155.25;5072400;28;20264;-84
2023/10/12 06:36:38;;;;;;;11.10;5.87;;;;;;;15.64;91.83;98149.41;5075981;28;20191;-86
2023/10/12 06:42:13;;;;;;;9.80;5.20;;;;;;;15.88;90.60;98152.53;5076099;28;20269;-82
2023/10/12 06:44:50;;;;;;;10.37;5.33;;;;;;;16.00;90.30;98156.78;5075895;28;20667;-82
2023/10/12 06:47:41;;;;;;;7.57;5.00;;;;;;;16.09;89.88;98154.94;5075768;28;20290;-82
2023/10/12 06:50:15;;;;;;;9.50;5.70;;;;;;;16.23;89.28;98156.34;5075209;28;20207;-82
2023/10/12 06:52:41;;;;;;;7.23;4.90;;;;;;;16.34;89.38;98164.22;5075121;28;20235;-82
2023/10/12 06:55:09;;;;;;;9.37;5.47;;;;;;;16.43;88.73;98166.06;5075790;28;20629;-82
2023/10/12 06:57:42;;;;;;;7.03;4.93;;;;;;;16.54;88.32;98164.09;5075859;28;20232;-82
2023/10/12 07:02:54;;;;;;;8.37;5.20;;;;;;;16.78;87.50;98166.31;5070676;28;20615;-83
2023/10/12 07:05:28;;;;;;;7.93;5.50;;;;;;;16.84;87.23;98166.59;5074798;28;20670;-83
2023/10/12 07:07:55;;;;;;;8.93;4.97;;;;;;;16.88;86.80;98169.81;5076249;28;20207;-83
2023/10/12 07:10:28;;;;;;;6.87;4.93;;;;;;;16.95;86.26;98179.75;5076193;28;20214;-83
2023/10/12 07:13:00;;;;;;;10.13;4.97;;;;;;;17.02;84.82;98180.03;5075184;28;20241;-83
2023/10/12 07:15:32;;;;;;;8.80;5.53;;;;;;;17.05;84.61;98175.22;5075964;28;20217;-82
2023/10/12 07:18:04;;;;;;;9.27;5.10;;;;;;;17.14;83.88;98185.03;5076941;28;20203;-82
2023/10/12 07:20:43;;;;;;;9.63;4.97;;;;;;;17.21;83.94;98185.28;5078234;28;20605;-82
2023/10/12 07:23:14;;;;;;;9.33;4.90;;;;;;;17.27;83.84;98190.91;5076585;28;20318;-82
2023/10/12 07:25:43;;;;;;;9.77;5.13;;;;;;;17.37;83.28;98191.72;5075329;28;20242;-82
2023/10/12 07:28:16;;;;;;;9.20;5.23;;;;;;;17.50;82.34;98186.88;5075134;28;20204;-83
2023/10/12 07:30:43;;;;;;;8.80;4.87;;;;;;;17.60;81.84;98187.69;5075120;28;20215;-82
2023/10/12 07:33:09;;;;;;;11.67;5.10;;;;;;;17.70;81.42;98193.84;5074743;28;20307;-81
2023/10/12 07:35:38;;;;;;;7.10;5.07;;;;;;;17.69;80.28;98191.31;5075436;28;20231;-82
2023/10/12 07:38:12;;;;;;;11.03;5.90;;;;;;;17.70;80.33;98193.84;5074815;28;20313;-82
2023/10/12 07:40:48;;;;;;;8.10;5.90;;;;;;;17.78;79.17;98164.53;5075831;28;20215;-82
2023/10/12 07:43:18;;;;;;;8.53;5.57;;;;;;;17.76;78.55;98163.84;5074800;28;20203;-82
2023/10/12 07:45:49;;;;;;;10.37;5.93;;;;;;;17.72;79.22;98164.28;5075049;28;20214;-82
2023/10/12 07:48:29;;;;;;;8.67;5.37;;;;;;;17.74;79.45;98178.34;5074745;28;20207;-82
2023/10/12 07:51:15;;;;;;;9.63;5.73;;;;;;;17.76;79.26;98190.59;5073878;28;20318;-82
2023/10/12 07:53:41;;;;;;;8.17;4.57;;;;;;;17.77;79.29;98186.91;5073392;28;20658;-82
2023/10/12 07:56:15;;;;;;;7.40;4.97;;;;;;;17.81;78.62;98180.25;5074073;28;20212;-82
2023/10/12 07:58:42;;;;;;;8.63;5.73;;;;;;;17.82;78.02;98181.97;5073621;28;20235;-82
2023/10/12 08:01:21;;;;;;;7.23;5.10;;;;;;;17.81;78.07;98179.44;5073300;28;20239;-82
2023/10/12 08:03:52;;;;;;;10.77;5.33;;;;;;;17.78;78.84;98191.25;5073230;28;20211;-82
2023/10/12 08:06:27;;;;;;;8.43;4.70;;;;;;;17.84;78.61;98181.78;5074061;28;20638;-82
2023/10/12 08:09:02;;;;;;;6.63;4.83;;;;;;;17.81;78.35;98177.59;5074361;28;20302;-82
2023/10/12 08:11:28;;;;;;;9.97;5.40;;;;;;;17.83;78.27;98175.63;5073651;28;20269;-82
2023/10/12 08:13:56;;;;;;;8.67;5.13;;;;;;;17.83;77.73;98180.97;5073988;28;20215;-82
2023/10/12 08:16:29;;;;;;;9.90;5.03;;;;;;;17.87;77.39;98174.31;5074479;28;20215;-82
2023/10/12 08:21:43;;;;;;;8.60;4.93;;;;;;;17.87;76.99;98171.63;5073145;28;20293;-82
2023/10/12 08:24:25;;;;;;;7.97;4.60;;;;;;;17.88;77.56;98170.66;5073812;28;20211;-82
2023/10/12 08:26:58;;;;;;;7.80;4.90;;;;;;;17.92;76.96;98172.03;5073542;28;20272;-82
2023/10/12 08:32:29;;;;;;;8.97;4.57;;;;;;;17.95;76.64;98173.56;5072430;28;20323;-82
2023/10/12 08:35:11;;;;;;;5.60;4.43;;;;;;;17.99;77.12;98177.63;5073244;28;20271;-82
2023/10/12 08:38:09;;;;;;;8.23;4.30;;;;;;;18.04;77.39;98180.69;5073598;28;20207;-82
2023/10/12 08:40:30;;;;;;;6.67;5.13;;;;;;;18.06;76.52;98173.34;5073597;28;20266;-82
2023/10/12 08:42:55;;;;;;;5.93;4.53;;;;;;;18.08;76.18;98177.56;5073143;28;20670;-82
2023/10/12 08:45:26;;;;;;;9.57;4.87;;;;;;;18.14;75.65;98168.94;5073439;28;20304;-82
2023/10/12 08:47:54;;;;;;;8.47;4.43;;;;;;;18.24;75.39;98171.53;5073545;28;20208;-82
2023/10/12 08:53:09;;;;;;;6.50;4.37;;;;;;;18.37;75.12;98170.19;5073181;28;20214;-83
2023/10/12 08:55:36;;;;;;;7.03;4.30;;;;;;;18.43;74.99;98166.91;5073864;28;20216;-82
2023/10/12 08:58:15;;;;;;;7.57;4.53;;;;;;;18.50;74.13;98161.78;5073405;28;20272;-83
2023/10/12 09:00:44;;;;;;;8.80;4.67;;;;;;;18.56;74.64;98171.84;5074452;28;20290;-81
2023/10/12 09:03:24;;;;;;;6.50;4.57;;;;;;;18.57;74.12;98169.03;5075833;28;20215;-82
2023/10/12 09:05:52;;;;;;;8.73;4.73;;;;;;;18.58;73.52;98172.53;5076275;28;20226;-81
2023/10/12 09:11:13;;;;;;;6.43;4.33;;;;;;;18.63;73.91;98171.09;5075737;28;20238;-82
2023/10/12 09:13:45;;;;;;;7.20;4.40;;;;;;;18.70;73.51;98172.16;5075598;28;20211;-81
2023/10/12 09:16:14;;;;;;;7.23;4.57;;;;;;;18.71;73.45;98170.31;5074327;28;20264;-81
2023/10/12 09:18:46;;;;;;;7.37;4.13;;;;;;;18.76;73.19;98178.72;5075308;28;20227;-82
2023/10/12 09:21:23;;;;;;;7.33;4.67;;;;;;;18.80;72.57;98170.22;5073953;28;20255;-81
2023/10/12 09:23:58;;;;;;;7.90;4.30;;;;;;;18.85;72.59;98173.28;5073194;28;20209;-80
2023/10/12 09:26:33;;;;;;;6.53;4.40;;;;;;;18.90;72.23;98176.31;5073291;28;20307;-80
2023/10/12 09:29:12;;;;;;;7.57;4.30;;;;;;;18.96;72.20;98175.69;5074233;28;20230;-81
2023/10/12 09:31:55;;;;;;;7.07;4.57;;;;;;;19.02;71.84;98168.88;5073522;28;20306;-82
2023/10/12 09:37:08;;;;;;;6.87;4.37;;;;;;;19.18;71.60;98174.31;5055168;28;20199;-81
2023/10/12 09:39:36;;;;;;;7.03;4.03;;;;;;;19.18;71.77;98180.53;5073791;28;20250;-80
2023/10/12 09:42:19;;;;;;;6.30;4.13;;;;;;;19.27;71.42;98174.25;5072683;28;20223;-82
2023/10/12 09:45:01;;;;;;;6.03;4.10;;;;;;;19.31;70.86;98169.41;5074144;28;20211;-81
2023/10/12 09:47:43;;;;;;;6.13;4.30;;;;;;;19.38;70.36;98173.16;5074447;28;20233;-81
2023/10/12 09:50:13;;;;;;;14.10;8.73;;;;;;;19.51;70.05;98171.69;5074563;28;20221;-81
2023/10/12 09:52:47;;;;;;;7.00;5.20;;;;;;;19.66;69.51;98164.72;5072647;28;20227;-82
2023/10/12 09:55:24;;;;;;;6.07;4.50;;;;;;;19.75;68.63;98158.38;5075959;28;20732;-82
2023/10/12 09:57:53;;;;;;;8.57;5.13;;;;;;;19.81;68.85;98162.28;5077162;28;20242;-82
2023/10/12 10:00:28;;;;;;;7.53;4.73;;;;;;;19.84;68.54;98154.75;5074384;28;20229;-81
2023/10/12 10:02:59;;;;;;;6.20;4.50;;;;;;;19.92;66.89;98143.16;5073718;28;20199;-82
2023/10/12 10:05:51;;;;;;;7.13;4.00;;;;;;;19.97;66.82;98151.56;5072594;28;20261;-82
2023/10/12 10:08:18;;;;;;;6.43;4.63;;;;;;;20.05;66.36;98149.75;5072365;28;20207;-82
2023/10/12 10:10:48;;;;;;;5.37;4.03;;;;;;;20.04;66.78;98153.44;5076218;28;20207;-82
2023/10/12 10:13:46;;;;;;;5.97;3.90;;;;;;;20.07;66.10;98155.00;5076000;28;20614;-81
2023/10/12 10:16:15;;;;;;;5.93;3.90;;;;;;;20.16;65.72;98157.53;5076654;28;20215;-82
2023/10/12 10:18:47;;;;;;;6.90;4.10;;;;;;;20.18;65.88;98155.50;5076286;28;20204;-81
2023/10/12 10:21:15;;;;;;;5.63;3.87;;;;;;;20.24;65.74;98165.59;5075823;28;20270;-82
2023/10/12 10:23:48;;;;;;;7.10;4.43;;;;;;;20.29;64.24;98157.88;5076408;28;20203;-82
2023/10/12 10:26:20;;;;;;;6.73;3.97;;;;;;;20.38;64.35;98162.28;5077178;28;20572;-83
2023/10/12 10:28:54;;;;;;;8.17;4.20;;;;;;;20.50;64.46;98152.88;5076367;28;20211;-82
2023/10/12 10:31:25;;;;;;;6.57;4.10;;;;;;;20.58;64.06;98155.56;5075164;28;20737;-82
2023/10/12 10:33:57;;;;;;;6.93;4.00;;;;;;;20.70;62.93;98151.53;5074957;28;20211;-82
2023/10/12 10:36:27;;;;;;;5.70;3.77;;;;;;;20.75;63.17;98154.56;5075155;28;20212;-82
2023/10/12 10:38:54;;;;;;;4.77;3.70;;;;;;;20.83;63.28;98154.53;5075453;28;20208;-82
2023/10/12 10:41:38;;;;;;;5.63;4.10;;;;;;;20.88;62.87;98160.28;5075043;28;20647;-82
2023/10/12 10:44:08;;;;;;;5.47;4.27;;;;;;;20.90;62.58;98160.13;5074016;28;20206;-82
2023/10/12 10:46:40;;;;;;;6.63;4.27;;;;;;;20.88;63.28;98159.44;5075379;28;20284;-82
2023/10/12 10:49:06;;;;;;;5.23;3.80;;;;;;;20.85;63.61;98165.94;5075268;28;20200;-82
2023/10/12 10:51:33;;;;;;;6.70;4.23;;;;;;;20.83;63.94;98161.75;5074053;28;20740;-82
2023/10/12 10:54:00;;;;;;;5.53;4.00;;;;;;;20.80;63.44;98156.72;5074853;28;20218;-82
2023/10/12 10:56:36;;;;;;;5.83;3.97;;;;;;;20.77;63.61;98168.66;5075697;28;20576;-83
2023/10/12 10:59:05;;;;;;;7.87;4.50;;;;;;;20.80;63.21;98154.03;5075388;28;20202;-82
2023/10/12 11:01:31;;;;;;;6.13;4.27;;;;;;;20.82;62.90;98152.88;5072417;28;20231;-80
2023/10/12 11:04:00;;;;;;;6.93;4.60;;;;;;;20.83;63.02;98156.38;5073283;28;20214;-80
2023/10/12 11:06:28;;;;;;;7.17;4.63;;;;;;;20.86;62.94;98162.25;5074746;28;20213;-80
2023/10/12 11:09:05;;;;;;;7.17;4.50;;;;;;;20.90;63.07;98163.63;5074116;28;20208;-80
2023/10/12 11:11:38;;;;;;;6.70;4.43;;;;;;;20.90;63.08;98163.63;5074896;28;20744;-79
2023/10/12 11:14:08;;;;;;;7.83;4.63;;;;;;;20.93;63.39;98168.69;5075963;28;20233;-80
2023/10/12 11:16:36;;;;;;;6.53;4.57;;;;;;;20.98;64.49;98166.31;5065145;28;20210;-80
2023/10/12 11:19:08;;;;;;;8.20;4.63;;;;;;;21.04;65.64;98176.38;5069257;28;20629;-80
2023/10/12 11:21:35;;;;;;;6.67;4.47;;;;;;;21.06;65.80;98179.75;5063371;28;20995;-80
2023/10/12 11:24:03;;;;;;;6.60;4.43;;;;;;;21.21;65.21;98179.91;5087945;28;20229;-80
2023/10/12 11:26:39;;;;;;;8.07;4.87;;;;;;;21.22;64.87;98173.50;5077530;28;20296;-80
2023/10/12 11:29:11;;;;;;;7.33;4.50;;;;;;;21.20;63.58;98173.69;5083690;28;20202;-80
2023/10/12 11:31:38;;;;;;;6.60;4.73;;;;;;;21.23;61.77;98154.53;5085313;28;20239;-80
2023/10/12 11:34:07;;;;;;;6.67;4.57;;;;;;;21.21;61.84;98155.72;5084584;28;20214;-80
2023/10/12 11:36:35;;;;;;;6.60;4.23;;;;;;;21.18;61.75;98166.78;5075662;28;20218;-80
2023/10/12 11:39:05;;;;;;;7.40;4.80;;;;;;;21.25;61.20;98157.03;5075739;28;20211;-80
2023/10/12 11:41:36;;;;;;;6.93;4.80;;;;;;;21.17;60.84;98149.84;5078422;28;20341;-80
2023/10/12 11:44:05;;;;;;;8.83;4.87;;;;;;;21.17;61.81;98170.50;5085177;28;20226;-80
2023/10/12 11:46:44;;;;;;;7.30;4.70;;;;;;;21.29;63.28;98185.25;5081803;28;20211;-80
2023/10/12 11:49:11;;;;;;;8.67;5.13;;;;;;;21.35;63.87;98190.78;5075690;28;20256;-80
2023/10/12 11:51:50;;;;;;;7.20;4.73;;;;;;;21.33;64.40;98192.78;5079107;28;20573;-80
2023/10/12 11:54:20;;;;;;;8.67;4.87;;;;;;;21.19;64.74;98189.97;5074235;28;20390;-80
2023/10/12 11:56:49;;;;;;;6.43;4.50;;;;;;;21.21;65.17;98194.16;5079141;28;20673;-80
2023/10/12 11:59:22;;;;;;;8.97;4.70;;;;;;;21.32;65.92;98191.13;5082166;28;20709;-80
2023/10/12 12:01:55;;;;;;;9.63;5.37;;;;;;;21.30;66.18;98187.78;5075769;28;20913;-80
2023/10/12 12:04:30;;;;;;;9.23;4.80;;;;;;;21.21;65.18;98175.34;5082777;28;20217;-80
2023/10/12 12:06:57;;;;;;;11.00;4.90;;;;;;;21.12;65.74;98179.06;5080772;28;20209;-80
2023/10/12 12:09:27;;;;;;;7.47;4.67;;;;;;;20.96;66.90;98176.41;5083273;28;20206;-80
2023/10/12 12:11:55;;;;;;;10.27;5.17;;;;;;;20.89;67.81;98188.84;5068905;28;20372;-80
2023/10/12 12:14:21;;;;;;;9.27;5.10;;;;;;;20.69;67.04;98170.50;5086856;28;20594;-79
2023/10/12 12:16:49;;;;;;;6.43;4.00;;;;;;;20.66;67.14;98165.47;5076481;28;20238;-80
2023/10/12 12:19:23;;;;;;;8.23;4.83;;;;;;;20.52;68.45;98185.78;5092690;28;20229;-79
2023/10/12 12:21:50;;;;;;;7.80;5.07;;;;;;;20.54;69.31;98199.03;5072511;28;20231;-80